Time;durP1;ratioP1;P1;durP2;ratioP2;P2;SDS_P1;SDS_P2;PMS_P1;PMS_P2;Temp;Humidity;BMP_temperature;BMP_pressure;BME280_temperature;BME280_humidity;BME280_pressure;Samples;Min_cycle;Max_cycle;Signal;HPM_P1;HPM_P2
2023/03/28 00:01:45;;;;;;;3.20;1.30;;;;;;;6.92;48.21;98494.56;8381557;28;20286;-69
2023/03/28 00:05:49;;;;;;;2.27;1.30;;;;;;;6.73;48.53;98494.94;8381589;28;20225;-69
2023/03/28 00:09:53;;;;;;;2.43;1.37;;;;;;;6.83;47.92;98498.16;8381403;28;20240;-70
2023/03/28 00:13:59;;;;;;;2.00;1.43;;;;;;;6.97;47.79;98513.34;8381336;28;20535;-70
2023/03/28 00:18:04;;;;;;;1.87;1.33;;;;;;;6.93;48.09;98512.56;8381067;28;20461;-70
2023/03/28 00:22:07;;;;;;;1.63;1.23;;;;;;;6.67;48.40;98525.94;8381253;28;20551;-70
2023/03/28 00:26:12;;;;;;;1.97;1.50;;;;;;;6.73;48.72;98538.69;8380733;28;20239;-70
2023/03/28 00:30:15;;;;;;;2.77;1.40;;;;;;;6.94;48.16;98531.44;8380598;28;20401;-69
2023/03/28 00:34:19;;;;;;;4.20;1.63;;;;;;;6.70;48.18;98530.19;8380757;28;20232;-69
2023/03/28 00:38:24;;;;;;;2.67;1.40;;;;;;;6.61;48.55;98546.66;8380612;28;20232;-70
2023/03/28 00:42:29;;;;;;;4.10;2.00;;;;;;;6.61;48.56;98546.66;8380567;28;20544;-70
2023/03/28 00:46:35;;;;;;;3.23;2.13;;;;;;;6.77;48.14;98548.03;8380385;28;20241;-70
2023/03/28 00:50:41;;;;;;;4.53;2.57;;;;;;;6.45;49.11;98548.66;8380229;28;20233;-70
2023/03/28 00:54:44;;;;;;;3.87;2.43;;;;;;;6.73;48.55;98550.72;8379717;28;20302;-69
2023/03/28 00:58:48;;;;;;;2.97;2.20;;;;;;;6.68;48.79;98539.66;8379906;28;20259;-69
2023/03/28 01:02:54;;;;;;;5.63;2.60;;;;;;;6.69;48.74;98546.53;8379993;28;20240;-70
2023/03/28 01:06:57;;;;;;;4.00;2.17;;;;;;;6.73;48.69;98545.56;8379463;28;20232;-70
2023/03/28 01:11:00;;;;;;;4.80;2.30;;;;;;;6.68;49.09;98555.09;8379717;28;20330;-70
2023/03/28 01:15:08;;;;;;;4.73;2.40;;;;;;;6.69;48.70;98552.50;8379526;28;20224;-70
2023/03/28 01:19:20;;;;;;;4.60;2.30;;;;;;;6.62;49.19;98554.34;8379790;28;20532;-70
2023/03/28 01:23:43;;;;;;;4.67;2.60;;;;;;;6.08;50.18;98564.75;8379280;28;20236;-70
2023/03/28 01:27:51;;;;;;;4.50;2.47;;;;;;;6.30;49.89;98536.06;8378088;28;20236;-69
2023/03/28 01:32:11;;;;;;;4.67;2.53;;;;;;;6.14;50.26;98567.22;8379340;28;20244;-70
2023/03/28 01:36:41;;;;;;;2.80;2.50;;;;;;;6.10;50.17;98568.13;8379155;28;20225;-70
2023/03/28 01:40:49;;;;;;;6.37;2.90;;;;;;;6.09;50.77;98568.16;8378717;28;20247;-69
2023/03/28 01:45:00;;;;;;;3.40;2.83;;;;;;;6.19;50.34;98572.28;8378872;28;20237;-70
2023/03/28 01:49:07;;;;;;;5.67;3.43;;;;;;;6.41;49.94;98570.19;8378670;28;20225;-70
2023/03/28 01:53:17;;;;;;;6.60;3.80;;;;;;;6.34;49.97;98579.75;8378761;28;20225;-70
2023/03/28 01:57:25;;;;;;;5.43;3.70;;;;;;;6.21;50.56;98566.25;8378844;28;20422;-70
2023/03/28 02:01:35;;;;;;;4.93;3.70;;;;;;;6.05;50.75;98569.94;8378529;28;20300;-70
2023/03/28 02:05:39;;;;;;;4.57;3.80;;;;;;;6.06;50.78;98569.91;8378630;28;20240;-70
2023/03/28 02:09:45;;;;;;;6.50;4.10;;;;;;;6.41;49.71;98573.59;8378149;28;20252;-68
2023/03/28 02:13:50;;;;;;;5.03;3.83;;;;;;;6.12;50.96;98580.97;8378449;28;20425;-69
2023/03/28 02:17:56;;;;;;;6.60;4.20;;;;;;;5.97;51.54;98577.78;8378414;28;20229;-69
2023/03/28 02:22:04;;;;;;;5.20;4.10;;;;;;;6.22;50.78;98577.38;8378481;28;20416;-69
2023/03/28 02:26:11;;;;;;;4.80;4.40;;;;;;;6.14;50.56;98577.50;8378167;28;20560;-70
2023/03/28 02:30:14;;;;;;;5.77;4.40;;;;;;;5.79;52.63;98575.47;8378502;28;20303;-70
2023/03/28 02:34:16;;;;;;;8.90;4.73;;;;;;;5.99;51.06;98577.75;8378399;28;20323;-70
2023/03/28 02:38:25;;;;;;;7.43;4.23;;;;;;;5.38;52.84;98580.31;8378484;28;20225;-70
2023/03/28 02:43:07;;;;;;;6.43;4.70;;;;;;;5.50;52.49;98584.44;8384305;28;20228;-69
2023/03/28 02:47:16;;;;;;;6.60;4.37;;;;;;;6.05;51.25;98590.50;8377826;28;20225;-70
2023/03/28 02:51:24;;;;;;;5.47;4.13;;;;;;;6.05;50.79;98570.81;8384241;28;20270;-70
2023/03/28 02:55:31;;;;;;;6.93;4.57;;;;;;;5.87;51.21;98582.19;8383861;28;20244;-69
2023/03/28 02:59:40;;;;;;;5.07;4.33;;;;;;;5.98;51.20;98599.22;8383918;28;20229;-70
2023/03/28 03:03:45;;;;;;;6.27;4.30;;;;;;;5.53;51.30;98532.19;8383519;28;20229;-68
2023/03/28 03:07:49;;;;;;;6.70;4.63;;;;;;;5.41;51.94;98602.56;8383651;28;20301;-70
2023/03/28 03:11:52;;;;;;;5.80;4.17;;;;;;;6.03;51.08;98615.41;8383595;28;20290;-69
2023/03/28 03:15:55;;;;;;;5.80;4.13;;;;;;;6.14;50.47;98603.22;8383489;28;20283;-70
2023/03/28 03:20:01;;;;;;;6.60;4.03;;;;;;;5.76;51.12;98570.38;8383446;28;20251;-70
2023/03/28 03:24:04;;;;;;;6.83;4.23;;;;;;;5.82;50.98;98604.53;8382973;28;20252;-70
2023/03/28 03:28:10;;;;;;;7.60;4.23;;;;;;;5.59;51.84;98614.31;8383075;28;20227;-70
2023/03/28 03:32:12;;;;;;;5.73;4.43;;;;;;;5.77;51.28;98614.03;8382992;28;20236;-70
2023/03/28 03:36:17;;;;;;;6.43;4.30;;;;;;;5.72;51.18;98615.81;8382853;28;20517;-70
2023/03/28 03:40:20;;;;;;;4.83;4.07;;;;;;;5.59;52.02;98622.84;8382616;28;20287;-70
2023/03/28 03:44:23;;;;;;;5.40;4.00;;;;;;;5.78;51.34;98626.00;8382433;28;20239;-70
2023/03/28 03:48:26;;;;;;;5.33;4.30;;;;;;;6.05;50.47;98619.66;8382466;28;20426;-70
2023/03/28 03:52:31;;;;;;;7.27;4.50;;;;;;;5.61;51.60;98633.94;8381855;28;20255;-70
2023/03/28 03:56:34;;;;;;;5.40;4.13;;;;;;;5.64;51.55;98625.38;8381949;28;20228;-70
2023/03/28 04:00:37;;;;;;;7.73;4.77;;;;;;;5.90;50.87;98627.53;8381905;28;20235;-70
2023/03/28 04:04:40;;;;;;;6.57;4.20;;;;;;;5.82;50.61;98634.53;8382009;28;20236;-70
2023/03/28 04:08:45;;;;;;;9.67;4.37;;;;;;;6.02;50.09;98631.72;8381233;28;20615;-69
2023/03/28 04:12:47;;;;;;;9.13;4.10;;;;;;;6.03;50.41;98634.22;8381543;28;20228;-70
2023/03/28 04:16:52;;;;;;;9.20;4.30;;;;;;;6.08;50.05;98631.59;8381466;28;20237;-70
2023/03/28 04:20:58;;;;;;;6.47;4.63;;;;;;;5.90;50.37;98619.84;8381475;28;20474;-69
2023/03/28 04:25:03;;;;;;;8.20;3.93;;;;;;;5.89;50.28;98649.00;8381007;28;20265;-70
2023/03/28 04:29:08;;;;;;;6.40;4.10;;;;;;;5.86;50.14;98641.31;8380998;28;20410;-70
2023/03/28 04:33:10;;;;;;;9.43;4.30;;;;;;;5.87;50.32;98641.31;8381029;28;20235;-70
2023/03/28 04:37:14;;;;;;;6.97;4.10;;;;;;;5.90;49.96;98649.84;8380763;28;20224;-70
2023/03/28 04:41:18;;;;;;;6.07;3.60;;;;;;;6.02;49.78;98645.41;8380603;28;20235;-70
2023/03/28 04:45:22;;;;;;;7.20;3.50;;;;;;;6.00;49.61;98646.31;8380392;28;20225;-70
2023/03/28 04:49:25;;;;;;;6.43;3.93;;;;;;;6.09;49.40;98650.44;8380556;28;20506;-70
2023/03/28 04:53:28;;;;;;;8.67;4.13;;;;;;;6.06;49.77;98659.06;8380470;28;20536;-70
2023/03/28 04:57:32;;;;;;;5.93;4.03;;;;;;;5.95;49.64;98659.22;8380087;28;20262;-70
2023/03/28 05:01:35;;;;;;;6.43;4.20;;;;;;;5.77;49.69;98649.16;8379753;28;20224;-70
2023/03/28 05:05:38;;;;;;;7.70;4.37;;;;;;;5.88;49.86;98665.28;8379419;28;20225;-70
2023/03/28 05:09:40;;;;;;;6.80;4.17;;;;;;;6.07;49.46;98666.78;8379988;28;20256;-70
2023/03/28 05:13:45;;;;;;;7.53;4.50;;;;;;;5.76;50.42;98675.75;8379267;28;20235;-69
2023/03/28 05:17:48;;;;;;;6.50;4.07;;;;;;;5.96;49.80;98686.66;8379996;28;20421;-70
2023/03/28 05:21:51;;;;;;;5.97;3.90;;;;;;;5.96;49.93;98686.66;8380250;28;20525;-70
2023/03/28 05:25:57;;;;;;;9.23;4.43;;;;;;;6.02;49.81;98686.56;8379343;28;20230;-70
2023/03/28 05:30:01;;;;;;;8.37;4.40;;;;;;;6.14;49.94;98690.66;8379172;28;20595;-69
2023/03/28 05:34:04;;;;;;;6.27;3.40;;;;;;;5.95;49.88;98700.34;8379379;28;20225;-68
2023/03/28 05:38:07;;;;;;;6.40;3.70;;;;;;;6.15;49.73;98706.94;8379364;28;20231;-69
2023/03/28 05:42:09;;;;;;;6.70;3.27;;;;;;;6.06;50.33;98707.94;8379068;28;20532;-71
2023/03/28 05:46:14;;;;;;;8.03;3.27;;;;;;;5.97;50.10;98708.91;8379289;28;20225;-70
2023/03/28 05:50:17;;;;;;;7.37;3.57;;;;;;;5.98;50.39;98709.78;8379198;28;20286;-71
2023/03/28 05:54:20;;;;;;;8.87;3.90;;;;;;;6.17;49.61;98729.19;8379132;28;20225;-69
2023/03/28 05:58:22;;;;;;;6.77;3.47;;;;;;;5.92;50.70;98726.09;8378847;28;20420;-71
2023/03/28 06:02:29;;;;;;;6.63;3.43;;;;;;;6.54;49.01;98723.50;8379210;28;20233;-71
2023/03/28 06:06:33;;;;;;;7.90;3.50;;;;;;;6.65;48.92;98731.88;8378611;28;20311;-70
2023/03/28 06:10:36;;;;;;;6.53;2.93;;;;;;;6.91;47.88;98740.03;8378405;28;20225;-71
2023/03/28 06:14:38;;;;;;;6.73;3.10;;;;;;;6.80;47.77;98747.97;8381545;28;20247;-70
2023/03/28 06:18:42;;;;;;;6.83;3.17;;;;;;;6.84;48.02;98739.31;8385022;28;20497;-69
2023/03/28 06:22:45;;;;;;;6.20;3.20;;;;;;;6.80;48.12;98750.53;8385042;28;20493;-70
2023/03/28 06:26:49;;;;;;;8.17;3.63;;;;;;;6.98;47.67;98752.78;8384949;28;20427;-70
2023/03/28 06:30:52;;;;;;;4.93;3.17;;;;;;;6.96;47.66;98766.56;8384981;28;20229;-70
2023/03/28 06:34:56;;;;;;;10.57;4.20;;;;;;;6.54;48.43;98769.81;8384807;28;20236;-70
2023/03/28 06:39:00;;;;;;;6.53;3.10;;;;;;;7.35;47.08;98783.06;8384712;28;20229;-70
2023/03/28 06:43:03;;;;;;;5.43;2.87;;;;;;;7.48;46.96;98782.81;8384788;28;20294;-70
2023/03/28 06:47:05;;;;;;;6.00;3.03;;;;;;;8.26;43.97;98782.97;8384751;28;20415;-70
2023/03/28 06:51:11;;;;;;;6.13;3.23;;;;;;;8.83;43.53;98792.03;8384284;28;20231;-71
2023/03/28 06:55:14;;;;;;;9.07;3.30;;;;;;;8.87;43.50;98791.94;8384137;28;20229;-70
2023/03/28 06:59:17;;;;;;;8.70;3.53;;;;;;;9.43;41.74;98793.09;8383814;28;20300;-71
2023/03/28 07:03:19;;;;;;;6.63;3.13;;;;;;;9.24;42.05;98788.41;8384048;28;20232;-69
2023/03/28 07:07:24;;;;;;;5.83;3.03;;;;;;;10.42;40.44;98799.81;8383933;28;20247;-70
2023/03/28 07:11:27;;;;;;;9.00;3.27;;;;;;;9.71;40.27;98800.94;8383645;28;20233;-70
2023/03/28 07:15:30;;;;;;;4.30;2.67;;;;;;;9.87;40.97;98802.22;8383713;28;20230;-70
2023/03/28 07:19:35;;;;;;;7.03;3.20;;;;;;;10.05;40.73;98792.25;8383662;28;20229;-70
2023/03/28 07:23:39;;;;;;;8.20;2.87;;;;;;;10.74;39.62;98801.41;8383376;28;20236;-71
2023/03/28 07:27:42;;;;;;;8.80;2.70;;;;;;;10.63;38.07;98806.06;8381519;28;20246;-70
2023/03/28 07:31:45;;;;;;;8.03;2.43;;;;;;;10.78;38.66;98811.66;8382956;28;20398;-70
2023/03/28 07:35:48;;;;;;;8.93;2.70;;;;;;;10.95;37.77;98827.53;8382839;28;20395;-71
2023/03/28 07:39:53;;;;;;;6.83;2.57;;;;;;;11.68;36.96;98833.72;8383020;28;20258;-71
2023/03/28 07:43:56;;;;;;;6.43;2.60;;;;;;;11.27;37.03;98833.38;8382838;28;20237;-71
2023/03/28 07:47:58;;;;;;;7.70;2.63;;;;;;;11.04;38.12;98847.97;8382468;28;20231;-71
2023/03/28 07:52:02;;;;;;;6.93;2.77;;;;;;;10.99;37.89;98846.41;8382574;28;20234;-71
2023/03/28 07:56:10;;;;;;;9.70;2.80;;;;;;;10.27;38.65;98849.41;8381893;28;20230;-70
2023/03/28 08:00:14;;;;;;;6.13;2.40;;;;;;;10.79;38.28;98847.03;8382303;28;20413;-70
2023/03/28 08:04:17;;;;;;;6.37;2.50;;;;;;;12.22;36.61;98862.97;8381854;28;20231;-71
2023/03/28 08:08:20;;;;;;;5.70;2.80;;;;;;;11.87;35.94;98841.72;8381857;28;20516;-71
2023/03/28 08:12:24;;;;;;;6.43;2.20;;;;;;;12.05;35.04;98858.38;8381780;28;20235;-70
2023/03/28 08:16:27;;;;;;;5.37;2.70;;;;;;;12.39;35.39;98860.59;8381389;28;20225;-70
2023/03/28 08:20:31;;;;;;;6.70;2.37;;;;;;;12.65;35.33;98869.16;8381440;28;20233;-70
2023/03/28 08:24:33;;;;;;;6.97;2.40;;;;;;;11.96;36.07;98872.56;8381232;28;20233;-71
2023/03/28 08:28:40;;;;;;;5.27;2.20;;;;;;;12.43;35.73;98879.50;8381071;28;20229;-70
2023/03/28 08:32:42;;;;;;;7.40;2.00;;;;;;;11.70;36.20;98874.28;8380645;28;20240;-70
2023/03/28 08:36:48;;;;;;;6.17;1.40;;;;;;;14.25;56.71;98886.84;8380702;28;20413;-71
2023/03/28 08:40:59;;;;;;;8.57;1.93;;;;;;;14.34;43.04;98875.16;8380812;28;20267;-71
2023/03/28 08:45:32;;;;;;;7.50;2.10;;;;;;;13.97;36.45;98879.38;8380564;28;20281;-71
2023/03/28 08:49:41;;;;;;;5.40;1.83;;;;;;;14.22;31.72;98881.78;8380373;28;20227;-73
2023/03/28 08:53:46;;;;;;;6.37;2.20;;;;;;;13.29;32.68;98881.38;8379766;28;20234;-72
2023/03/28 08:57:51;;;;;;;6.50;2.13;;;;;;;12.99;31.51;98880.84;8379818;28;20247;-72
2023/03/28 09:01:55;;;;;;;5.37;1.37;;;;;;;13.49;29.50;98883.19;8380117;28;20234;-71
2023/03/28 09:06:04;;;;;;;3.08;1.50;;;;;;;14.91;26.88;98893.44;8377992;28;20417;-72
2023/03/28 09:10:15;;;;;;;4.57;1.30;;;;;;;14.37;28.20;98898.47;8379626;28;20289;-73
2023/03/28 09:14:28;;;;;;;6.27;1.70;;;;;;;13.69;28.91;98901.41;8379591;28;20230;-72
2023/03/28 09:18:41;;;;;;;3.80;1.30;;;;;;;14.95;27.17;98901.97;8379912;28;20230;-73
2023/03/28 09:22:55;;;;;;;5.87;1.53;;;;;;;15.54;27.67;98903.41;8378835;28;20240;-71
2023/03/28 09:27:02;;;;;;;2.07;1.00;;;;;;;15.60;26.43;98900.50;8379393;28;20241;-71
2023/03/28 09:31:07;;;;;;;4.53;1.67;;;;;;;14.08;26.63;98845.06;8379291;28;20228;-71
2023/03/28 09:35:18;;;;;;;5.47;1.63;;;;;;;13.20;29.55;98902.56;8379153;28;20232;-71
2023/03/28 09:39:27;;;;;;;3.97;1.80;;;;;;;13.99;29.23;98902.75;8379333;28;20249;-70
2023/03/28 09:43:34;;;;;;;4.23;1.30;;;;;;;14.44;26.05;98896.44;8379197;28;20356;-71
2023/03/28 09:47:37;;;;;;;4.37;1.77;;;;;;;13.39;28.57;98897.50;8378691;28;20236;-72
2023/03/28 09:51:42;;;;;;;3.57;1.23;;;;;;;12.47;29.86;98910.53;8378557;28;20233;-72
2023/03/28 09:55:45;;;;;;;4.37;1.33;;;;;;;12.41;30.57;98909.91;8378116;28;20343;-71
2023/03/28 10:00:07;;;;;;;6.47;1.53;;;;;;;12.02;30.92;98902.66;8378862;28;20225;-72
2023/03/28 10:04:12;;;;;;;4.87;1.40;;;;;;;11.00;31.49;98905.13;8378606;28;20228;-72
2023/03/28 10:08:31;;;;;;;4.87;1.50;;;;;;;11.59;31.09;98902.31;8378644;28;20469;-71
2023/03/28 10:12:36;;;;;;;3.93;1.17;;;;;;;10.84;31.43;98903.00;8378745;28;20229;-72
2023/03/28 10:16:40;;;;;;;5.30;1.40;;;;;;;11.19;32.51;98911.41;8378376;28;20516;-72
2023/03/28 10:20:44;;;;;;;2.67;1.10;;;;;;;12.45;31.09;98916.66;8377855;28;20420;-71
2023/03/28 10:24:49;;;;;;;4.67;1.30;;;;;;;13.78;28.85;98901.94;8378026;28;20240;-72
2023/03/28 10:28:53;;;;;;;7.57;1.50;;;;;;;12.56;28.65;98911.09;8378335;28;20233;-72
2023/03/28 10:33:23;;;;;;;5.03;1.40;;;;;;;12.57;29.86;98912.78;8378247;28;20237;-71
2023/03/28 10:37:27;;;;;;;5.37;1.50;;;;;;;11.72;30.60;98907.97;8378271;28;20229;-72
2023/03/28 10:41:31;;;;;;;4.70;1.70;;;;;;;13.37;28.65;98914.91;8377904;28;20224;-72
2023/03/28 10:45:36;;;;;;;4.70;1.53;;;;;;;14.59;27.40;98897.53;8378032;28;20398;-72
2023/03/28 10:49:43;;;;;;;3.37;1.23;;;;;;;15.19;25.15;98907.75;8378047;28;20233;-71
2023/03/28 10:54:05;;;;;;;3.53;1.23;;;;;;;15.04;26.62;98899.75;8377720;28;20226;-71
2023/03/28 10:58:15;;;;;;;2.93;1.23;;;;;;;13.78;26.95;98899.31;8377785;28;20236;-72
2023/03/28 11:02:39;;;;;;;6.23;1.87;;;;;;;12.92;26.12;98906.22;8381247;28;20584;-72
2023/03/28 11:06:47;;;;;;;4.87;1.47;;;;;;;13.02;27.25;98891.97;8383008;28;20454;-71
2023/03/28 11:10:57;;;;;;;3.70;1.30;;;;;;;12.37;28.98;98896.16;8383411;28;20218;-71
2023/03/28 11:15:07;;;;;;;4.37;1.40;;;;;;;12.02;30.49;98898.31;8383275;28;23266;-71
2023/03/28 11:19:15;;;;;;;4.93;1.50;;;;;;;12.97;28.78;98898.28;8383064;28;20235;-71
2023/03/28 11:23:36;;;;;;;5.23;1.10;;;;;;;14.32;26.47;98877.00;8382819;28;20267;-71
2023/03/28 11:27:44;;;;;;;4.27;1.37;;;;;;;14.55;25.42;98877.72;8382734;28;20233;-71
2023/03/28 11:31:55;;;;;;;3.53;1.30;;;;;;;13.95;24.54;98867.34;8380216;28;20225;-71
2023/03/28 11:36:00;;;;;;;3.30;1.10;;;;;;;13.42;26.62;98853.97;8382125;28;20231;-71
2023/03/28 11:40:09;;;;;;;4.63;1.30;;;;;;;13.51;26.75;98764.25;8382647;28;20238;-71
2023/03/28 11:44:17;;;;;;;7.23;1.50;;;;;;;14.23;26.01;98854.78;8382733;28;20286;-71
2023/03/28 11:48:25;;;;;;;3.90;1.13;;;;;;;15.08;24.15;98853.50;8381690;28;20233;-71
2023/03/28 11:52:33;;;;;;;3.90;1.07;;;;;;;14.77;24.95;98830.63;8382482;28;20231;-72
2023/03/28 11:56:47;;;;;;;5.43;1.30;;;;;;;14.59;23.72;98853.22;8380759;28;20299;-72
2023/03/28 12:00:59;;;;;;;5.60;2.17;;;;;;;14.43;24.91;98840.00;8380886;28;20233;-71
2023/03/28 12:05:09;;;;;;;4.77;1.10;;;;;;;14.20;26.44;98835.84;8379596;28;20422;-71
2023/03/28 12:09:19;;;;;;;3.73;1.40;;;;;;;13.83;26.31;98843.53;8381423;28;20260;-72
2023/03/28 12:13:29;;;;;;;5.13;1.63;;;;;;;15.09;25.64;98847.34;8381207;28;20226;-71
2023/03/28 12:17:34;;;;;;;3.17;1.17;;;;;;;15.78;23.48;98848.28;8381613;28;20240;-71
2023/03/28 12:21:42;;;;;;;2.73;1.13;;;;;;;16.20;22.85;98850.44;8381538;28;20385;-71
2023/03/28 12:25:46;;;;;;;2.33;1.17;;;;;;;16.54;22.96;98848.59;8380674;28;20233;-71
2023/03/28 12:29:53;;;;;;;6.53;1.80;;;;;;;14.66;22.62;98839.00;8381227;28;20286;-71
2023/03/28 12:34:02;;;;;;;4.00;1.53;;;;;;;14.49;23.70;98839.75;8380903;28;20236;-71
2023/03/28 12:38:18;;;;;;;4.07;1.47;;;;;;;15.55;23.41;98833.78;8380772;28;20228;-72
2023/03/28 12:42:22;;;;;;;3.60;1.50;;;;;;;15.53;23.86;98831.22;8380754;28;20221;-72
2023/03/28 12:46:29;;;;;;;4.13;1.83;;;;;;;15.21;23.51;98820.66;8380660;28;20237;-72
2023/03/28 12:50:37;;;;;;;3.07;1.07;;;;;;;15.35;23.13;98827.81;8380832;28;20520;-72
2023/03/28 12:54:56;;;;;;;4.27;1.63;;;;;;;16.12;23.77;98826.47;8380255;28;20233;-72
2023/03/28 12:59:35;;;;;;;3.20;1.23;;;;;;;15.93;23.42;98826.59;8379947;28;20332;-72
2023/03/28 13:03:46;;;;;;;4.33;1.20;;;;;;;16.25;21.67;98823.22;8379913;28;20243;-73
2023/03/28 13:07:59;;;;;;;2.27;1.20;;;;;;;16.34;22.65;98826.16;8379235;28;20238;-72
2023/03/28 13:12:07;;;;;;;3.97;1.50;;;;;;;16.49;22.02;98816.66;8379655;28;20551;-72
2023/03/28 13:16:14;;;;;;;2.00;1.00;;;;;;;16.46;21.80;98818.59;8379959;28;20217;-72
2023/03/28 13:20:26;;;;;;;3.93;1.20;;;;;;;17.14;21.68;98813.88;8379720;28;20324;-72
2023/03/28 13:24:30;;;;;;;4.47;1.40;;;;;;;16.25;21.50;98797.91;8378746;28;20560;-72
2023/03/28 13:28:42;;;;;;;2.77;1.43;;;;;;;16.51;20.83;98813.97;8379507;28;20237;-72
2023/03/28 13:32:48;;;;;;;2.50;1.30;;;;;;;16.00;20.83;98794.00;8379331;28;20233;-71
2023/03/28 13:36:54;;;;;;;1.97;1.30;;;;;;;16.57;21.28;98788.28;8379226;28;20226;-71
2023/03/28 13:40:59;;;;;;;2.30;1.07;;;;;;;17.17;21.42;98781.44;8379130;28;20238;-71
2023/03/28 13:45:06;;;;;;;2.30;1.33;;;;;;;16.57;21.65;98782.22;8379216;28;20226;-71
2023/03/28 13:49:14;;;;;;;2.17;1.30;;;;;;;14.98;21.96;98769.63;8378856;28;20554;-72
2023/03/28 13:53:20;;;;;;;2.27;1.20;;;;;;;15.34;23.22;98778.28;8378852;28;20251;-72
2023/03/28 13:57:26;;;;;;;1.97;1.20;;;;;;;15.99;22.89;98788.84;8378831;28;20234;-71
2023/03/28 14:01:36;;;;;;;3.40;1.30;;;;;;;15.61;23.82;98791.69;8378783;28;20306;-71
2023/03/28 14:05:45;;;;;;;3.87;1.33;;;;;;;14.73;24.34;98785.63;8378608;28;20433;-72
2023/03/28 14:09:49;;;;;;;2.57;1.20;;;;;;;15.77;23.67;98776.09;8377701;28;20240;-72
2023/03/28 14:14:01;;;;;;;5.00;1.53;;;;;;;14.78;23.77;98772.38;8378216;28;20296;-71
2023/03/28 14:18:09;;;;;;;4.33;1.30;;;;;;;15.27;23.52;98767.34;8378659;28;20235;-71
2023/03/28 14:22:15;;;;;;;2.33;1.20;;;;;;;14.79;24.28;98766.22;8378345;28;20224;-71
2023/03/28 14:26:20;;;;;;;2.87;1.30;;;;;;;14.91;23.11;98765.63;8378140;28;20230;-71
2023/03/28 14:30:24;;;;;;;2.87;1.27;;;;;;;15.11;23.52;98769.84;8378052;28;20239;-71
2023/03/28 14:34:31;;;;;;;3.00;1.20;;;;;;;15.35;23.46;98769.56;8378887;28;20232;-72
2023/03/28 14:38:36;;;;;;;2.33;1.47;;;;;;;15.14;23.98;98758.44;8384565;28;20232;-71
2023/03/28 14:42:42;;;;;;;1.67;1.00;;;;;;;14.45;24.16;98753.03;8384504;28;20236;-72
2023/03/28 14:46:48;;;;;;;5.43;1.50;;;;;;;14.58;23.16;98742.03;8383787;28;20228;-71
2023/03/28 14:50:52;;;;;;;2.43;1.20;;;;;;;15.09;24.32;98736.94;8384195;28;20236;-70
2023/03/28 14:54:56;;;;;;;4.10;1.50;;;;;;;14.56;23.83;98733.44;8383907;28;20274;-71
2023/03/28 14:59:01;;;;;;;1.90;1.10;;;;;;;15.16;24.71;98720.06;8383689;28;20240;-72
2023/03/28 15:03:05;;;;;;;3.50;1.40;;;;;;;14.83;23.72;98715.59;8383636;28;20402;-71
2023/03/28 15:07:19;;;;;;;2.53;1.30;;;;;;;14.57;24.27;98711.69;8383815;28;20418;-72
2023/03/28 15:11:24;;;;;;;2.97;1.40;;;;;;;14.55;25.23;98706.53;8383008;28;20228;-72
2023/03/28 15:15:28;;;;;;;6.27;1.37;;;;;;;16.78;49.22;98715.63;8384026;28;20252;-72
2023/03/28 15:19:35;;;;;;;1.73;0.90;;;;;;;17.30;41.37;98701.25;8385310;28;20245;-71
2023/03/28 15:23:45;;;;;;;3.20;1.50;;;;;;;15.97;24.52;98687.09;8381117;28;20413;-72
2023/03/28 15:27:50;;;;;;;3.10;1.20;;;;;;;14.62;26.41;98678.41;8382376;28;20228;-71
2023/03/28 15:32:01;;;;;;;2.93;1.30;;;;;;;14.61;26.80;98669.75;8382908;28;20237;-72
2023/03/28 15:36:06;;;;;;;3.00;1.40;;;;;;;14.19;26.24;98628.38;8382584;28;20231;-71
2023/03/28 15:40:22;;;;;;;2.80;1.40;;;;;;;14.22;27.50;98670.75;8382527;28;20556;-71
2023/03/28 15:44:42;;;;;;;2.43;1.20;;;;;;;14.01;27.07;98661.34;8382584;28;20229;-72
2023/03/28 15:48:44;;;;;;;2.23;1.10;;;;;;;13.94;27.64;98658.22;8380976;28;20249;-71
2023/03/28 15:52:47;;;;;;;2.50;1.13;;;;;;;13.56;27.68;98660.81;8382272;28;20239;-71
2023/03/28 15:56:52;;;;;;;3.20;1.33;;;;;;;13.58;27.89;98653.78;8380516;28;20337;-73
2023/03/28 16:00:54;;;;;;;3.73;1.33;;;;;;;13.58;28.57;98652.94;8382225;28;20238;-70
2023/03/28 16:04:59;;;;;;;3.23;1.60;;;;;;;13.50;27.95;98658.50;8382040;28;20229;-69
2023/03/28 16:09:14;;;;;;;2.67;1.10;;;;;;;13.45;27.52;98634.44;8381405;28;20230;-70
2023/03/28 16:13:19;;;;;;;3.17;1.30;;;;;;;13.58;27.25;98642.53;8381395;28;20226;-70
2023/03/28 16:17:25;;;;;;;4.67;1.50;;;;;;;13.49;27.09;98635.97;8381605;28;20423;-71
2023/03/28 16:21:28;;;;;;;2.67;1.40;;;;;;;13.47;27.90;98632.59;8381417;28;20448;-71
2023/03/28 16:25:31;;;;;;;4.77;1.73;;;;;;;13.47;27.98;98648.22;8381077;28;20238;-71
2023/03/28 16:29:35;;;;;;;2.03;1.30;;;;;;;13.29;27.59;98634.25;8381133;28;20241;-71
2023/03/28 16:33:38;;;;;;;2.80;1.70;;;;;;;13.30;27.45;98636.81;8381087;28;20253;-71
2023/03/28 16:37:41;;;;;;;4.80;1.60;;;;;;;13.22;27.41;98630.25;8380537;28;20529;-71
2023/03/28 16:41:44;;;;;;;2.57;1.50;;;;;;;12.79;27.38;98638.13;8380581;28;20237;-70
2023/03/28 16:45:51;;;;;;;1.93;1.30;;;;;;;12.90;27.74;98632.50;8380698;28;20459;-71
2023/03/28 16:49:54;;;;;;;2.57;1.70;;;;;;;12.41;27.90;98639.75;8380830;28;20406;-70
2023/03/28 16:54:00;;;;;;;3.20;2.03;;;;;;;12.51;27.67;98635.88;8380270;28;20232;-71
2023/03/28 16:58:02;;;;;;;3.93;2.33;;;;;;;12.37;27.94;98625.19;8379663;28;20393;-72
2023/03/28 17:02:07;;;;;;;5.53;1.83;;;;;;;12.32;28.21;98618.44;8380051;28;20228;-71
2023/03/28 17:06:11;;;;;;;2.90;1.87;;;;;;;12.51;28.50;98612.50;8379682;28;20220;-71
2023/03/28 17:10:14;;;;;;;4.03;2.00;;;;;;;12.51;28.34;98613.34;8379231;28;20529;-71
2023/03/28 17:14:17;;;;;;;4.60;1.80;;;;;;;12.44;28.90;98616.25;8379677;28;20221;-71
2023/03/28 17:18:22;;;;;;;6.00;4.03;;;;;;;12.38;28.98;98617.34;8379388;28;20235;-72
2023/03/28 17:22:26;;;;;;;2.83;1.80;;;;;;;11.93;28.82;98600.97;8379358;28;20221;-72
2023/03/28 17:26:28;;;;;;;4.47;1.40;;;;;;;11.84;29.14;98603.03;8378926;28;20551;-73
2023/03/28 17:30:32;;;;;;;4.27;1.53;;;;;;;12.00;29.89;98598.97;8379201;28;20248;-73
2023/03/28 17:34:37;;;;;;;3.50;1.70;;;;;;;12.10;29.03;98591.66;8379103;28;20225;-72
2023/03/28 17:38:40;;;;;;;2.40;1.40;;;;;;;11.68;29.03;98576.88;8378739;28;20516;-72
2023/03/28 17:42:43;;;;;;;3.73;2.13;;;;;;;11.71;28.91;98562.03;8378536;28;20236;-71
2023/03/28 17:46:46;;;;;;;3.87;1.70;;;;;;;11.69;29.90;98586.31;8378617;28;20403;-72
2023/03/28 17:50:53;;;;;;;3.67;2.20;;;;;;;11.54;29.75;98569.63;8378807;28;20233;-72
2023/03/28 17:54:57;;;;;;;4.23;2.57;;;;;;;11.62;29.62;98569.31;8378106;28;20233;-73
2023/03/28 17:59:00;;;;;;;5.97;3.20;;;;;;;11.45;30.30;98560.44;8378559;28;20244;-72
2023/03/28 18:03:02;;;;;;;6.90;2.50;;;;;;;11.43;30.45;98557.06;8377388;28;20225;-72
2023/03/28 18:07:07;;;;;;;3.30;2.27;;;;;;;11.09;30.80;98557.50;8378537;28;20243;-72
2023/03/28 18:11:18;;;;;;;5.70;3.50;;;;;;;11.25;31.33;98549.97;8381967;28;20233;-71
2023/03/28 18:15:21;;;;;;;6.03;3.87;;;;;;;11.24;32.07;98564.69;8385189;28;20535;-71
2023/03/28 18:19:25;;;;;;;6.07;4.00;;;;;;;11.14;32.18;98553.81;8385105;28;20270;-72
2023/03/28 18:23:29;;;;;;;16.07;12.37;;;;;;;11.02;32.86;98551.66;8384761;28;20236;-72
2023/03/28 18:27:32;;;;;;;10.97;7.50;;;;;;;10.97;32.13;98561.38;8384842;28;20233;-72
2023/03/28 18:31:35;;;;;;;9.10;6.20;;;;;;;10.94;32.14;98554.53;8384734;28;20237;-73
2023/03/28 18:35:38;;;;;;;8.57;5.47;;;;;;;10.87;32.02;98518.53;8384568;28;20225;-72
2023/03/28 18:39:44;;;;;;;9.63;6.13;;;;;;;10.97;33.11;98543.25;8384004;28;20284;-70
2023/03/28 18:43:50;;;;;;;9.43;5.00;;;;;;;13.66;54.18;98534.53;8384075;28;20564;-70
2023/03/28 18:47:53;;;;;;;10.43;6.73;;;;;;;15.38;39.80;98539.72;8384100;28;20236;-71
2023/03/28 18:52:02;;;;;;;12.47;9.10;;;;;;;15.16;33.22;98540.91;8384046;28;20506;-72
2023/03/28 18:56:08;;;;;;;12.50;8.80;;;;;;;12.64;30.98;98537.44;8383736;28;20225;-71
2023/03/28 19:00:17;;;;;;;13.27;10.10;;;;;;;12.09;32.00;98538.06;8383960;28;20218;-71
2023/03/28 19:04:21;;;;;;;13.03;9.67;;;;;;;11.58;32.74;98524.50;8383796;28;20225;-71
2023/03/28 19:08:26;;;;;;;11.50;10.10;;;;;;;11.32;33.50;98530.69;8383358;28;20223;-71
2023/03/28 19:12:30;;;;;;;11.63;9.27;;;;;;;11.14;34.22;98533.09;8383511;28;20233;-70
2023/03/28 19:16:33;;;;;;;9.83;8.20;;;;;;;10.98;34.54;98529.38;8382813;28;20229;-71
2023/03/28 19:20:38;;;;;;;13.37;10.70;;;;;;;10.77;34.88;98531.00;8382715;28;20225;-70
2023/03/28 19:24:46;;;;;;;14.70;12.20;;;;;;;10.59;34.95;98529.09;8381699;28;20573;-69